NASA966 KEFD-

Flight info

Callsign NASA966
Flight time N/A
Altitude VFR
Route
Aircraft T38/L-VGD/C

Departure

Time 2026-04-26 18:40
Airport Ellington Airport (KEFD)

Arrival

Time N/A
Airport -
Time Latitude Longitude Altitude Speed Heading
2026-04-26 18:33 29.59696 -95.16736 -65 ft 0 kts 109°
2026-04-26 18:36 29.59694 -95.16725 38 ft 5 kts 86°
2026-04-26 18:36 29.59703 -95.16673 38 ft 8 kts 86°
2026-04-26 18:36 29.59728 -95.16625 38 ft 9 kts
2026-04-26 18:36 29.59829 -95.16627 38 ft 18 kts 359°
2026-04-26 18:37 29.59968 -95.16630 37 ft 22 kts 360°
2026-04-26 18:37 29.60129 -95.16633 37 ft 25 kts 359°
2026-04-26 18:37 29.60309 -95.16637 37 ft 27 kts 359°
2026-04-26 18:37 29.60510 -95.16640 37 ft 30 kts
2026-04-26 18:38 29.60726 -95.16646 37 ft 32 kts 359°
2026-04-26 18:38 29.60960 -95.16653 37 ft 35 kts 359°
2026-04-26 18:38 29.61210 -95.16658 37 ft 37 kts 359°
2026-04-26 18:38 29.61473 -95.16665 37 ft 39 kts 359°
2026-04-26 18:39 29.61693 -95.16631 37 ft 25 kts 43°
2026-04-26 18:39 29.61794 -95.16509 36 ft 18 kts 63°
2026-04-26 18:39 29.61748 -95.16436 36 ft 2 kts 179°
2026-04-26 18:39 29.61653 -95.16433 36 ft 57 kts 179°
2026-04-26 18:40 29.60894 -95.16425 39 ft 156 kts 178°
2026-04-26 18:40 29.59592 -95.16373 512 ft 220 kts 175°
2026-04-26 18:40 29.57821 -95.16278 1303 ft 293 kts 176°
2026-04-26 18:40 29.55748 -95.16211 1738 ft 296 kts 178°
2026-04-26 18:41 29.53726 -95.16206 2247 ft 292 kts 180°
2026-04-26 18:41 29.51658 -95.16412 3387 ft 303 kts 191°
2026-04-26 18:41 29.49490 -95.17122 3654 ft 344 kts 202°
2026-04-26 18:41 29.47376 -95.18489 3550 ft 355 kts 213°
2026-04-26 18:42 29.45334 -95.20076 3472 ft 364 kts 213°
2026-04-26 18:42 29.43208 -95.21721 3446 ft 371 kts 213°
2026-04-26 18:42 29.41095 -95.23362 3437 ft 361 kts 213°
2026-04-26 18:42 29.39043 -95.24950 3439 ft 349 kts 213°
2026-04-26 18:43 29.37060 -95.26466 3435 ft 340 kts 213°
2026-04-26 18:43 29.35108 -95.27959 3448 ft 336 kts 213°
2026-04-26 18:43 29.33204 -95.29456 3434 ft 327 kts 213°
2026-04-26 18:43 29.31331 -95.30897 3408 ft 319 kts 212°
2026-04-26 18:44 29.29505 -95.32295 3323 ft 315 kts 212°
2026-04-26 18:44 29.27671 -95.33714 2793 ft 320 kts 212°
2026-04-26 18:44 29.25831 -95.35136 2392 ft 318 kts 212°
2026-04-26 18:44 29.24024 -95.36587 2055 ft 315 kts 213°
2026-04-26 18:45 29.22276 -95.38017 1899 ft 306 kts 214°
2026-04-26 18:45 29.20595 -95.39465 1707 ft 300 kts 215°
2026-04-26 18:45 29.19176 -95.41199 1543 ft 303 kts 235°
2026-04-26 18:45 29.17945 -95.43189 1322 ft 306 kts 231°
2026-04-26 18:46 29.16724 -95.45032 1252 ft 268 kts 219°
2026-04-26 18:46 29.15223 -95.45974 715 ft 241 kts 192°
2026-04-26 18:46 29.13669 -95.46238 371 ft 215 kts 178°
2026-04-26 18:46 29.12225 -95.46223 112 ft 198 kts 177°
2026-04-26 18:47 29.11038 -95.46209 32 ft 151 kts 180°
2026-04-26 18:47 29.09728 -95.46231 256 ft 221 kts 180°
2026-04-26 18:47 29.08316 -95.46859 1618 ft 234 kts 261°
2026-04-26 18:47 29.09483 -95.48135 1678 ft 306 kts 350°
2026-04-26 18:48 29.11755 -95.48472 1816 ft 332 kts 354°
2026-04-26 18:48 29.12988 -95.47301 1279 ft 226 kts 94°
2026-04-26 18:48 29.12176 -95.46231 160 ft 181 kts 172°
2026-04-26 18:48 29.11001 -95.46210 40 ft 180 kts 178°
2026-04-26 18:49 29.09514 -95.46234 725 ft 204 kts 202°
2026-04-26 18:49 29.09765 -95.47403 1460 ft 253 kts 356°
2026-04-26 18:49 29.11878 -95.47700 1453 ft 347 kts 353°
2026-04-26 18:49 29.13471 -95.47082 2423 ft 205 kts 122°
2026-04-26 18:50 29.12171 -95.46252 2448 ft 271 kts 169°
2026-04-26 18:50 29.10506 -95.45310 2244 ft 286 kts 80°
2026-04-26 18:50 29.12041 -95.44388 1622 ft 266 kts
2026-04-26 18:50 29.13009 -95.45608 698 ft 221 kts 247°
2026-04-26 18:51 29.11900 -95.46238 121 ft 191 kts 169°
2026-04-26 18:51 29.10756 -95.46205 31 ft 128 kts 178°
2026-04-26 18:51 29.10166 -95.46204 32 ft 51 kts 178°
2026-04-26 18:51 29.09927 -95.46186 34 ft 17 kts 137°
2026-04-26 18:52 29.09884 -95.46086 32 ft 6 kts 64°
2026-04-26 18:52 29.09892 -95.46083 32 ft 0 kts 320°
2026-04-26 18:55 29.09910 -95.46112 32 ft 0 kts 275°
2026-04-26 18:57 29.09910 -95.46113 32 ft 5 kts 275°
2026-04-26 18:58 29.09910 -95.46188 34 ft 0 kts 269°
2026-04-26 18:58 29.10014 -95.46207 33 ft 52 kts 359°
2026-04-26 18:58 29.10796 -95.46204 31 ft 168 kts
2026-04-26 18:58 29.12191 -95.46197 460 ft 223 kts
2026-04-26 18:59 29.13783 -95.45534 1296 ft 287 kts 39°
2026-04-26 18:59 29.15587 -95.43938 1549 ft 361 kts 40°
2026-04-26 18:59 29.17733 -95.42349 1610 ft 375 kts 29°
2026-04-26 18:59 29.20172 -95.41140 1623 ft 388 kts 24°
2026-04-26 19:00 29.22639 -95.39790 1376 ft 396 kts 30°
2026-04-26 19:00 29.24962 -95.38348 1428 ft 377 kts 30°
2026-04-26 19:00 29.27227 -95.36953 1512 ft 362 kts 30°
2026-04-26 19:00 29.29411 -95.35610 1497 ft 351 kts 31°
2026-04-26 19:01 29.31519 -95.34309 1476 ft 340 kts 31°
2026-04-26 19:01 29.33570 -95.33046 1457 ft 331 kts 31°
2026-04-26 19:01 29.35567 -95.31807 1432 ft 323 kts 31°
2026-04-26 19:01 29.37534 -95.30602 1420 ft 318 kts 30°
2026-04-26 19:02 29.39446 -95.29404 1528 ft 310 kts 28°
2026-04-26 19:02 29.40689 -95.28611 1556 ft 306 kts 28°
2026-04-26 19:02 29.42554 -95.27430 1606 ft 309 kts 28°
2026-04-26 19:02 29.43836 -95.26619 1603 ft 315 kts 28°
2026-04-26 19:03 29.46403 -95.24977 1567 ft 325 kts 28°
2026-04-26 19:03 29.48391 -95.23717 1585 ft 327 kts 28°
2026-04-26 19:03 29.50379 -95.22457 1577 ft 326 kts 28°
2026-04-26 19:03 29.52336 -95.21216 1507 ft 318 kts 28°
2026-04-26 19:04 29.54244 -95.19989 1451 ft 313 kts 28°
2026-04-26 19:04 29.56242 -95.19043 1503 ft 311 kts 12°
2026-04-26 19:04 29.58396 -95.18800 1591 ft 312 kts 358°
2026-04-26 19:04 29.60592 -95.18888 1607 ft 319 kts 356°
2026-04-26 19:05 29.64468 -95.18374 1732 ft 264 kts 70°
2026-04-26 19:05 29.63939 -95.16717 1087 ft 213 kts 148°
2026-04-26 19:05 29.62653 -95.16459 328 ft 176 kts 180°
2026-04-26 19:06 29.61512 -95.16434 36 ft 142 kts 180°
2026-04-26 19:06 29.60667 -95.16419 37 ft 104 kts 179°
2026-04-26 19:06 29.60069 -95.16406 37 ft 54 kts 180°
2026-04-26 19:06 29.59778 -95.16407 38 ft 38 kts 182°
2026-04-26 19:07 29.59623 -95.16519 38 ft 27 kts 234°
2026-04-26 19:07 29.59670 -95.16696 38 ft 17 kts 320°
2026-04-26 19:07 29.59718 -95.16714 38 ft 0 kts
2026-04-26 19:07 29.59724 -95.16714 38 ft 0 kts